sensor_id;sensor_type;location;lat;lon;timestamp;pressure;altitude;pressure_sealevel;temperature;humidity
6427;BME280;3246;42.664;23.308;2022-08-20T00:00:16;120715.88;;;-142.62;43.71
6427;BME280;3246;42.664;23.308;2022-08-20T00:02:46;120715.88;;;-142.62;43.72
6427;BME280;3246;42.664;23.308;2022-08-20T00:05:15;120715.88;;;-142.62;43.67
6427;BME280;3246;42.664;23.308;2022-08-20T00:07:45;120715.88;;;-142.62;43.96
6427;BME280;3246;42.664;23.308;2022-08-20T00:10:12;120715.88;;;-142.62;43.74
6427;BME280;3246;42.664;23.308;2022-08-20T00:12:42;120715.88;;;-142.62;43.94
6427;BME280;3246;42.664;23.308;2022-08-20T00:15:12;120715.88;;;-142.62;43.81
6427;BME280;3246;42.664;23.308;2022-08-20T00:17:39;120715.88;;;-142.62;43.85
6427;BME280;3246;42.664;23.308;2022-08-20T00:20:09;120715.88;;;-142.62;43.83
6427;BME280;3246;42.664;23.308;2022-08-20T00:22:36;120715.88;;;-142.62;43.88
6427;BME280;3246;42.664;23.308;2022-08-20T00:25:04;120715.88;;;-142.62;43.98
6427;BME280;3246;42.664;23.308;2022-08-20T00:27:32;120715.88;;;-142.62;44.17
6427;BME280;3246;42.664;23.308;2022-08-20T00:29:59;120715.88;;;-142.62;44.27
6427;BME280;3246;42.664;23.308;2022-08-20T00:32:27;120715.88;;;-142.62;44.20
6427;BME280;3246;42.664;23.308;2022-08-20T00:34:54;120715.88;;;-142.62;43.96
6427;BME280;3246;42.664;23.308;2022-08-20T00:37:21;120715.88;;;-142.62;44.41
6427;BME280;3246;42.664;23.308;2022-08-20T00:39:48;120715.88;;;-142.62;44.24
6427;BME280;3246;42.664;23.308;2022-08-20T00:42:15;120715.88;;;-142.62;44.53
6427;BME280;3246;42.664;23.308;2022-08-20T00:44:45;120715.88;;;-142.62;44.75
6427;BME280;3246;42.664;23.308;2022-08-20T00:47:12;120715.88;;;-142.62;44.76
6427;BME280;3246;42.664;23.308;2022-08-20T00:49:40;120715.88;;;-142.62;44.70
6427;BME280;3246;42.664;23.308;2022-08-20T00:52:11;120715.88;;;-142.62;44.90
6427;BME280;3246;42.664;23.308;2022-08-20T00:54:41;120715.88;;;-142.62;44.88
6427;BME280;3246;42.664;23.308;2022-08-20T00:57:11;120715.88;;;-142.62;44.81
6427;BME280;3246;42.664;23.308;2022-08-20T00:59:41;120715.88;;;-142.62;45.02
6427;BME280;3246;42.664;23.308;2022-08-20T01:02:11;120715.88;;;-142.62;45.03
6427;BME280;3246;42.664;23.308;2022-08-20T01:04:41;120715.88;;;-142.62;45.21
6427;BME280;3246;42.664;23.308;2022-08-20T01:07:10;120715.88;;;-142.62;45.43
6427;BME280;3246;42.664;23.308;2022-08-20T01:09:37;120715.88;;;-142.62;45.14
6427;BME280;3246;42.664;23.308;2022-08-20T01:12:05;120715.88;;;-142.62;45.32
6427;BME280;3246;42.664;23.308;2022-08-20T01:14:33;120715.88;;;-142.62;45.59
6427;BME280;3246;42.664;23.308;2022-08-20T01:17:08;120715.88;;;-142.62;45.64
6427;BME280;3246;42.664;23.308;2022-08-20T01:19:41;120715.88;;;-142.62;45.76
6427;BME280;3246;42.664;23.308;2022-08-20T01:22:12;120715.88;;;-142.62;45.89
6427;BME280;3246;42.664;23.308;2022-08-20T01:24:57;120715.88;;;-142.62;45.89
6427;BME280;3246;42.664;23.308;2022-08-20T01:27:29;120715.88;;;-142.62;46.00
6427;BME280;3246;42.664;23.308;2022-08-20T01:29:57;120715.88;;;-142.62;46.01
6427;BME280;3246;42.664;23.308;2022-08-20T01:32:26;120715.88;;;-142.62;46.22
6427;BME280;3246;42.664;23.308;2022-08-20T01:34:53;120715.88;;;-142.62;46.11
6427;BME280;3246;42.664;23.308;2022-08-20T01:37:19;120715.88;;;-142.62;46.50
6427;BME280;3246;42.664;23.308;2022-08-20T01:39:46;120715.88;;;-142.62;46.49
6427;BME280;3246;42.664;23.308;2022-08-20T01:42:18;120715.88;;;-142.62;46.31
6427;BME280;3246;42.664;23.308;2022-08-20T01:44:49;120715.88;;;-142.62;46.28
6427;BME280;3246;42.664;23.308;2022-08-20T01:47:20;120715.88;;;-142.62;46.43
6427;BME280;3246;42.664;23.308;2022-08-20T01:49:50;120715.88;;;-142.62;46.66
6427;BME280;3246;42.664;23.308;2022-08-20T01:52:23;120715.88;;;-142.62;46.85
6427;BME280;3246;42.664;23.308;2022-08-20T01:54:52;120715.88;;;-142.62;46.79
6427;BME280;3246;42.664;23.308;2022-08-20T01:57:22;120715.88;;;-142.62;47.04
6427;BME280;3246;42.664;23.308;2022-08-20T01:59:52;120715.88;;;-142.62;47.30
6427;BME280;3246;42.664;23.308;2022-08-20T02:02:20;120715.88;;;-142.62;47.08
6427;BME280;3246;42.664;23.308;2022-08-20T02:04:49;120715.88;;;-142.62;47.18
6427;BME280;3246;42.664;23.308;2022-08-20T02:07:19;120715.88;;;-142.62;47.21
6427;BME280;3246;42.664;23.308;2022-08-20T02:09:47;120715.88;;;-142.62;47.47
6427;BME280;3246;42.664;23.308;2022-08-20T02:12:16;120715.88;;;-142.62;47.52
6427;BME280;3246;42.664;23.308;2022-08-20T02:14:46;120715.88;;;-142.62;47.42
6427;BME280;3246;42.664;23.308;2022-08-20T02:17:15;120715.88;;;-142.62;47.49
6427;BME280;3246;42.664;23.308;2022-08-20T02:19:45;120715.88;;;-142.62;47.22
6427;BME280;3246;42.664;23.308;2022-08-20T02:22:17;120715.88;;;-142.62;47.53
6427;BME280;3246;42.664;23.308;2022-08-20T02:24:46;120715.88;;;-142.62;47.30
6427;BME280;3246;42.664;23.308;2022-08-20T02:27:13;120715.88;;;-142.62;47.70
6427;BME280;3246;42.664;23.308;2022-08-20T02:29:40;120715.88;;;-142.62;47.55
6427;BME280;3246;42.664;23.308;2022-08-20T02:32:07;120715.88;;;-142.62;47.59
6427;BME280;3246;42.664;23.308;2022-08-20T02:34:35;120715.88;;;-142.62;47.67
6427;BME280;3246;42.664;23.308;2022-08-20T02:37:04;120715.88;;;-142.62;47.89
6427;BME280;3246;42.664;23.308;2022-08-20T02:39:32;120715.88;;;-142.62;47.92
6427;BME280;3246;42.664;23.308;2022-08-20T02:41:59;120715.88;;;-142.62;47.85
6427;BME280;3246;42.664;23.308;2022-08-20T02:44:28;120715.88;;;-142.62;47.91
6427;BME280;3246;42.664;23.308;2022-08-20T02:46:55;120715.88;;;-142.62;48.37
6427;BME280;3246;42.664;23.308;2022-08-20T02:49:23;120715.88;;;-142.62;48.43
6427;BME280;3246;42.664;23.308;2022-08-20T02:51:51;120715.88;;;-142.62;48.58
6427;BME280;3246;42.664;23.308;2022-08-20T02:54:18;120715.88;;;-142.62;48.54
6427;BME280;3246;42.664;23.308;2022-08-20T02:56:45;120715.88;;;-142.62;48.49
6427;BME280;3246;42.664;23.308;2022-08-20T02:59:12;120715.88;;;-142.62;48.84
6427;BME280;3246;42.664;23.308;2022-08-20T03:01:38;120715.88;;;-142.62;49.24
6427;BME280;3246;42.664;23.308;2022-08-20T03:04:05;120715.88;;;-142.62;49.28
6427;BME280;3246;42.664;23.308;2022-08-20T03:06:32;120715.88;;;-142.62;49.30
6427;BME280;3246;42.664;23.308;2022-08-20T03:09:00;120715.88;;;-142.62;49.52
6427;BME280;3246;42.664;23.308;2022-08-20T03:11:29;120715.88;;;-142.62;49.75
6427;BME280;3246;42.664;23.308;2022-08-20T03:13:57;120715.88;;;-142.62;49.99
6427;BME280;3246;42.664;23.308;2022-08-20T03:16:24;120715.88;;;-142.62;50.13
6427;BME280;3246;42.664;23.308;2022-08-20T03:18:51;120715.88;;;-142.62;50.45
6427;BME280;3246;42.664;23.308;2022-08-20T03:21:18;120715.88;;;-142.62;50.74
6427;BME280;3246;42.664;23.308;2022-08-20T03:23:44;120715.88;;;-142.62;51.01
6427;BME280;3246;42.664;23.308;2022-08-20T03:26:13;120715.88;;;-142.62;51.21
6427;BME280;3246;42.664;23.308;2022-08-20T03:28:41;120715.88;;;-142.62;51.52
6427;BME280;3246;42.664;23.308;2022-08-20T03:31:08;120715.88;;;-142.62;51.70
6427;BME280;3246;42.664;23.308;2022-08-20T03:33:35;120715.88;;;-142.62;52.12
6427;BME280;3246;42.664;23.308;2022-08-20T03:36:04;120715.88;;;-142.62;52.03
6427;BME280;3246;42.664;23.308;2022-08-20T03:38:31;120715.88;;;-142.62;52.15
6427;BME280;3246;42.664;23.308;2022-08-20T03:40:58;120715.88;;;-142.62;52.94
6427;BME280;3246;42.664;23.308;2022-08-20T03:43:26;120715.88;;;-142.62;53.17
6427;BME280;3246;42.664;23.308;2022-08-20T03:45:53;120715.88;;;-142.62;53.21
6427;BME280;3246;42.664;23.308;2022-08-20T03:48:20;120715.88;;;-142.62;52.82
6427;BME280;3246;42.664;23.308;2022-08-20T03:50:48;120715.88;;;-142.62;52.89
6427;BME280;3246;42.664;23.308;2022-08-20T03:53:16;120715.88;;;-142.62;52.87
6427;BME280;3246;42.664;23.308;2022-08-20T03:55:45;120715.88;;;-142.62;52.88
6427;BME280;3246;42.664;23.308;2022-08-20T03:58:14;120715.88;;;-142.62;52.99
6427;BME280;3246;42.664;23.308;2022-08-20T04:00:45;120715.88;;;-142.62;52.65
6427;BME280;3246;42.664;23.308;2022-08-20T04:03:12;120715.88;;;-142.62;52.44
6427;BME280;3246;42.664;23.308;2022-08-20T04:05:40;120715.88;;;-142.62;52.51
6427;BME280;3246;42.664;23.308;2022-08-20T04:08:08;120715.88;;;-142.62;52.61
6427;BME280;3246;42.664;23.308;2022-08-20T04:10:36;120715.88;;;-142.62;52.88
6427;BME280;3246;42.664;23.308;2022-08-20T04:13:05;120715.88;;;-142.62;52.96
6427;BME280;3246;42.664;23.308;2022-08-20T04:15:33;120715.88;;;-142.62;53.20
6427;BME280;3246;42.664;23.308;2022-08-20T04:18:05;120715.88;;;-142.62;52.83
6427;BME280;3246;42.664;23.308;2022-08-20T04:20:34;120715.88;;;-142.62;53.20
6427;BME280;3246;42.664;23.308;2022-08-20T04:23:02;120715.88;;;-142.62;53.07
6427;BME280;3246;42.664;23.308;2022-08-20T04:25:30;120715.88;;;-142.62;53.28
6427;BME280;3246;42.664;23.308;2022-08-20T04:27:59;120715.88;;;-142.62;53.33
6427;BME280;3246;42.664;23.308;2022-08-20T04:30:28;120715.88;;;-142.62;53.42
6427;BME280;3246;42.664;23.308;2022-08-20T04:32:55;120715.88;;;-142.62;53.68
6427;BME280;3246;42.664;23.308;2022-08-20T04:35:26;120715.88;;;-142.62;53.92
6427;BME280;3246;42.664;23.308;2022-08-20T04:37:57;120715.88;;;-142.62;53.80
6427;BME280;3246;42.664;23.308;2022-08-20T04:40:24;120715.88;;;-142.62;53.60
6427;BME280;3246;42.664;23.308;2022-08-20T04:43:09;120715.88;;;-142.62;53.77
6427;BME280;3246;42.664;23.308;2022-08-20T04:45:36;120715.88;;;-142.62;53.82
6427;BME280;3246;42.664;23.308;2022-08-20T04:48:04;120715.88;;;-142.62;54.00
6427;BME280;3246;42.664;23.308;2022-08-20T04:50:34;120715.88;;;-142.62;53.57
6427;BME280;3246;42.664;23.308;2022-08-20T04:53:04;120715.88;;;-142.62;53.60
6427;BME280;3246;42.664;23.308;2022-08-20T04:55:31;120715.88;;;-142.62;53.49
6427;BME280;3246;42.664;23.308;2022-08-20T04:58:02;120715.88;;;-142.62;53.41
6427;BME280;3246;42.664;23.308;2022-08-20T05:00:30;120715.88;;;-142.62;53.49
6427;BME280;3246;42.664;23.308;2022-08-20T05:02:57;120715.88;;;-142.62;53.51
6427;BME280;3246;42.664;23.308;2022-08-20T05:05:24;120715.88;;;-142.62;53.81
6427;BME280;3246;42.664;23.308;2022-08-20T05:07:53;120715.88;;;-142.62;54.44
6427;BME280;3246;42.664;23.308;2022-08-20T05:10:20;120715.88;;;-142.62;55.04
6427;BME280;3246;42.664;23.308;2022-08-20T05:12:48;120715.88;;;-142.62;54.65
6427;BME280;3246;42.664;23.308;2022-08-20T05:15:15;120715.88;;;-142.62;54.43
6427;BME280;3246;42.664;23.308;2022-08-20T05:17:42;120715.88;;;-142.62;54.73
6427;BME280;3246;42.664;23.308;2022-08-20T05:20:12;120715.88;;;-142.62;55.02
6427;BME280;3246;42.664;23.308;2022-08-20T05:22:42;120715.88;;;-142.62;54.81
6427;BME280;3246;42.664;23.308;2022-08-20T05:25:10;120715.88;;;-142.62;54.72
6427;BME280;3246;42.664;23.308;2022-08-20T05:27:38;120715.88;;;-142.62;54.70
6427;BME280;3246;42.664;23.308;2022-08-20T05:30:09;120715.88;;;-142.62;55.09
6427;BME280;3246;42.664;23.308;2022-08-20T05:32:37;120715.88;;;-142.62;54.75
6427;BME280;3246;42.664;23.308;2022-08-20T05:35:06;120715.88;;;-142.62;54.72
6427;BME280;3246;42.664;23.308;2022-08-20T05:37:34;120715.88;;;-142.62;54.50
6427;BME280;3246;42.664;23.308;2022-08-20T05:40:01;120715.88;;;-142.62;54.18
6427;BME280;3246;42.664;23.308;2022-08-20T05:42:29;120715.88;;;-142.62;53.70
6427;BME280;3246;42.664;23.308;2022-08-20T05:44:56;120715.88;;;-142.62;53.58
6427;BME280;3246;42.664;23.308;2022-08-20T05:47:22;120715.88;;;-142.62;53.18
6427;BME280;3246;42.664;23.308;2022-08-20T05:49:52;120715.88;;;-142.62;53.25
6427;BME280;3246;42.664;23.308;2022-08-20T05:52:19;120715.88;;;-142.62;53.12
6427;BME280;3246;42.664;23.308;2022-08-20T05:54:46;120715.88;;;-142.62;53.21
6427;BME280;3246;42.664;23.308;2022-08-20T05:57:16;120715.88;;;-142.62;52.84
6427;BME280;3246;42.664;23.308;2022-08-20T05:59:45;120715.88;;;-142.62;52.59
6427;BME280;3246;42.664;23.308;2022-08-20T06:02:11;120715.88;;;-142.62;52.77
6427;BME280;3246;42.664;23.308;2022-08-20T06:04:52;120715.88;;;-142.62;52.67
6427;BME280;3246;42.664;23.308;2022-08-20T06:07:19;120715.88;;;-142.62;52.40
6427;BME280;3246;42.664;23.308;2022-08-20T06:09:46;120715.88;;;-142.62;52.27
6427;BME280;3246;42.664;23.308;2022-08-20T06:12:13;120715.88;;;-142.62;51.81
6427;BME280;3246;42.664;23.308;2022-08-20T06:14:41;120715.88;;;-142.62;52.05
6427;BME280;3246;42.664;23.308;2022-08-20T06:17:11;120715.88;;;-142.62;52.08
6427;BME280;3246;42.664;23.308;2022-08-20T06:19:39;120715.88;;;-142.62;52.03
6427;BME280;3246;42.664;23.308;2022-08-20T06:22:06;120715.88;;;-142.62;52.01
6427;BME280;3246;42.664;23.308;2022-08-20T06:24:33;120715.88;;;-142.62;51.94
6427;BME280;3246;42.664;23.308;2022-08-20T06:27:02;120715.88;;;-142.62;51.58
6427;BME280;3246;42.664;23.308;2022-08-20T06:29:30;120715.88;;;-142.62;51.67
6427;BME280;3246;42.664;23.308;2022-08-20T06:31:58;120715.88;;;-142.62;51.93
6427;BME280;3246;42.664;23.308;2022-08-20T06:34:27;120715.88;;;-142.62;51.57
6427;BME280;3246;42.664;23.308;2022-08-20T06:36:54;120715.88;;;-142.62;51.13
6427;BME280;3246;42.664;23.308;2022-08-20T06:39:22;120715.88;;;-142.62;51.30
6427;BME280;3246;42.664;23.308;2022-08-20T06:41:50;120715.88;;;-142.62;51.56
6427;BME280;3246;42.664;23.308;2022-08-20T06:44:17;120715.88;;;-142.62;51.30
6427;BME280;3246;42.664;23.308;2022-08-20T06:46:44;120715.88;;;-142.62;50.91
6427;BME280;3246;42.664;23.308;2022-08-20T06:49:11;120715.88;;;-142.62;51.01
6427;BME280;3246;42.664;23.308;2022-08-20T06:51:39;120715.88;;;-142.62;50.79
6427;BME280;3246;42.664;23.308;2022-08-20T06:54:06;120715.88;;;-142.62;50.37
6427;BME280;3246;42.664;23.308;2022-08-20T06:56:33;120715.88;;;-142.62;50.34
6427;BME280;3246;42.664;23.308;2022-08-20T06:59:00;120715.88;;;-142.62;50.42
6427;BME280;3246;42.664;23.308;2022-08-20T07:01:27;120715.88;;;-142.62;50.32
6427;BME280;3246;42.664;23.308;2022-08-20T07:03:54;120715.88;;;-142.62;50.34
6427;BME280;3246;42.664;23.308;2022-08-20T07:06:24;120715.88;;;-142.62;50.37
6427;BME280;3246;42.664;23.308;2022-08-20T07:08:52;120715.88;;;-142.62;50.15
6427;BME280;3246;42.664;23.308;2022-08-20T07:11:19;120715.88;;;-142.62;50.20
6427;BME280;3246;42.664;23.308;2022-08-20T07:13:46;120715.88;;;-142.62;50.20
6427;BME280;3246;42.664;23.308;2022-08-20T07:16:13;120715.88;;;-142.62;50.10
6427;BME280;3246;42.664;23.308;2022-08-20T07:18:40;120715.88;;;-142.62;49.78
6427;BME280;3246;42.664;23.308;2022-08-20T07:21:07;120715.88;;;-142.62;49.78
6427;BME280;3246;42.664;23.308;2022-08-20T07:23:34;120715.88;;;-142.62;49.16
6427;BME280;3246;42.664;23.308;2022-08-20T07:26:03;120715.88;;;-142.62;49.23
6427;BME280;3246;42.664;23.308;2022-08-20T07:28:29;120715.88;;;-142.62;49.46
6427;BME280;3246;42.664;23.308;2022-08-20T07:30:57;120715.88;;;-142.62;48.61
6427;BME280;3246;42.664;23.308;2022-08-20T07:33:42;120715.88;;;-142.62;48.25
6427;BME280;3246;42.664;23.308;2022-08-20T07:36:10;120715.88;;;-142.62;48.04
6427;BME280;3246;42.664;23.308;2022-08-20T07:38:38;120715.88;;;-142.62;48.03
6427;BME280;3246;42.664;23.308;2022-08-20T07:41:08;120715.88;;;-142.62;47.56
6427;BME280;3246;42.664;23.308;2022-08-20T07:43:38;120715.88;;;-142.62;47.17
6427;BME280;3246;42.664;23.308;2022-08-20T07:46:05;120715.88;;;-142.62;47.43
6427;BME280;3246;42.664;23.308;2022-08-20T07:48:34;120715.88;;;-142.62;46.94
6427;BME280;3246;42.664;23.308;2022-08-20T07:51:02;120715.88;;;-142.62;47.01
6427;BME280;3246;42.664;23.308;2022-08-20T07:53:30;120715.88;;;-142.62;47.10
6427;BME280;3246;42.664;23.308;2022-08-20T07:55:57;120715.88;;;-142.62;46.50
6427;BME280;3246;42.664;23.308;2022-08-20T07:58:26;120715.88;;;-142.62;46.54
6427;BME280;3246;42.664;23.308;2022-08-20T08:00:53;120715.88;;;-142.62;46.53
6427;BME280;3246;42.664;23.308;2022-08-20T08:03:19;120715.88;;;-142.62;46.55
6427;BME280;3246;42.664;23.308;2022-08-20T08:05:48;120715.88;;;-142.62;46.63
6427;BME280;3246;42.664;23.308;2022-08-20T08:08:19;120715.88;;;-142.62;46.50
6427;BME280;3246;42.664;23.308;2022-08-20T08:10:50;120715.88;;;-142.62;46.26
6427;BME280;3246;42.664;23.308;2022-08-20T08:13:18;120715.88;;;-142.62;45.96
6427;BME280;3246;42.664;23.308;2022-08-20T08:15:48;120715.88;;;-142.62;46.02
6427;BME280;3246;42.664;23.308;2022-08-20T08:18:18;120715.88;;;-142.62;45.64
6427;BME280;3246;42.664;23.308;2022-08-20T08:20:49;120715.88;;;-142.62;45.71
6427;BME280;3246;42.664;23.308;2022-08-20T08:23:18;120715.88;;;-142.62;45.66
6427;BME280;3246;42.664;23.308;2022-08-20T08:25:45;120715.88;;;-142.62;45.53
6427;BME280;3246;42.664;23.308;2022-08-20T08:28:12;120715.88;;;-142.62;45.75
6427;BME280;3246;42.664;23.308;2022-08-20T08:30:41;120715.88;;;-142.62;45.03
6427;BME280;3246;42.664;23.308;2022-08-20T08:33:19;120715.88;;;-142.62;44.71
6427;BME280;3246;42.664;23.308;2022-08-20T08:35:57;120715.88;;;-142.62;44.86
6427;BME280;3246;42.664;23.308;2022-08-20T08:38:25;120715.88;;;-142.62;44.20
6427;BME280;3246;42.664;23.308;2022-08-20T08:40:55;120715.88;;;-142.62;44.41
6427;BME280;3246;42.664;23.308;2022-08-20T08:43:24;120715.88;;;-142.62;44.79
6427;BME280;3246;42.664;23.308;2022-08-20T08:45:56;120715.88;;;-142.62;44.68
6427;BME280;3246;42.664;23.308;2022-08-20T08:48:31;120715.88;;;-142.62;44.18
6427;BME280;3246;42.664;23.308;2022-08-20T08:51:00;120715.88;;;-142.62;44.18
6427;BME280;3246;42.664;23.308;2022-08-20T08:53:33;120715.88;;;-142.62;44.01
6427;BME280;3246;42.664;23.308;2022-08-20T08:56:03;120715.88;;;-142.62;43.90
6427;BME280;3246;42.664;23.308;2022-08-20T08:58:30;120715.88;;;-142.62;43.95
6427;BME280;3246;42.664;23.308;2022-08-20T09:01:01;120715.88;;;-142.62;43.69
6427;BME280;3246;42.664;23.308;2022-08-20T09:03:32;120715.88;;;-142.62;43.53
6427;BME280;3246;42.664;23.308;2022-08-20T09:06:02;120715.88;;;-142.62;43.49
6427;BME280;3246;42.664;23.308;2022-08-20T09:08:32;120715.88;;;-142.62;43.36
6427;BME280;3246;42.664;23.308;2022-08-20T09:11:02;120715.88;;;-142.62;43.32
6427;BME280;3246;42.664;23.308;2022-08-20T09:13:29;120715.88;;;-142.62;42.75
6427;BME280;3246;42.664;23.308;2022-08-20T09:15:56;120715.88;;;-142.62;42.82
6427;BME280;3246;42.664;23.308;2022-08-20T09:18:23;120715.88;;;-142.62;42.83
6427;BME280;3246;42.664;23.308;2022-08-20T09:20:52;120715.88;;;-142.62;42.52
6427;BME280;3246;42.664;23.308;2022-08-20T09:23:19;120715.88;;;-142.62;42.79
6427;BME280;3246;42.664;23.308;2022-08-20T09:25:46;120715.88;;;-142.62;42.57
6427;BME280;3246;42.664;23.308;2022-08-20T09:28:13;120715.88;;;-142.62;42.20
6427;BME280;3246;42.664;23.308;2022-08-20T09:30:40;120715.88;;;-142.62;42.61
6427;BME280;3246;42.664;23.308;2022-08-20T09:33:07;120715.88;;;-142.62;42.01
6427;BME280;3246;42.664;23.308;2022-08-20T09:35:34;120715.88;;;-142.62;42.00
6427;BME280;3246;42.664;23.308;2022-08-20T09:38:03;120715.88;;;-142.62;41.19
6427;BME280;3246;42.664;23.308;2022-08-20T09:40:30;120715.88;;;-142.62;41.64
6427;BME280;3246;42.664;23.308;2022-08-20T09:42:57;120715.88;;;-142.62;41.76
6427;BME280;3246;42.664;23.308;2022-08-20T09:45:24;120715.88;;;-142.62;41.18
6427;BME280;3246;42.664;23.308;2022-08-20T09:47:51;120715.88;;;-142.62;40.65
6427;BME280;3246;42.664;23.308;2022-08-20T09:50:18;120715.88;;;-142.62;40.90
6427;BME280;3246;42.664;23.308;2022-08-20T09:52:47;120715.88;;;-142.62;40.30
6427;BME280;3246;42.664;23.308;2022-08-20T09:55:20;120715.88;;;-142.62;39.71
6427;BME280;3246;42.664;23.308;2022-08-20T09:57:47;120715.88;;;-142.62;39.76
6427;BME280;3246;42.664;23.308;2022-08-20T10:00:16;120715.88;;;-142.62;40.24
6427;BME280;3246;42.664;23.308;2022-08-20T10:02:43;120715.88;;;-142.62;40.44
6427;BME280;3246;42.664;23.308;2022-08-20T10:05:11;120715.88;;;-142.62;39.53
6427;BME280;3246;42.664;23.308;2022-08-20T10:07:38;120715.88;;;-142.62;39.84
6427;BME280;3246;42.664;23.308;2022-08-20T10:10:07;120715.88;;;-142.62;39.50
6427;BME280;3246;42.664;23.308;2022-08-20T10:12:36;120715.88;;;-142.62;39.69
6427;BME280;3246;42.664;23.308;2022-08-20T10:15:03;120715.88;;;-142.62;39.32
6427;BME280;3246;42.664;23.308;2022-08-20T10:17:30;120715.88;;;-142.62;38.88
6427;BME280;3246;42.664;23.308;2022-08-20T10:19:57;120715.88;;;-142.62;39.01
6427;BME280;3246;42.664;23.308;2022-08-20T10:22:24;120715.88;;;-142.62;39.36
6427;BME280;3246;42.664;23.308;2022-08-20T10:24:51;120715.88;;;-142.62;39.70
6427;BME280;3246;42.664;23.308;2022-08-20T10:27:18;120715.88;;;-142.62;39.42
6427;BME280;3246;42.664;23.308;2022-08-20T10:29:46;120715.88;;;-142.62;39.12
6427;BME280;3246;42.664;23.308;2022-08-20T10:32:14;120715.88;;;-142.62;38.97
6427;BME280;3246;42.664;23.308;2022-08-20T10:34:43;120715.88;;;-142.62;38.54
6427;BME280;3246;42.664;23.308;2022-08-20T10:37:14;120715.88;;;-142.62;38.72
6427;BME280;3246;42.664;23.308;2022-08-20T10:39:41;120715.88;;;-142.62;38.67
6427;BME280;3246;42.664;23.308;2022-08-20T10:42:08;120715.88;;;-142.62;38.69
6427;BME280;3246;42.664;23.308;2022-08-20T10:44:35;120715.88;;;-142.62;38.70
6427;BME280;3246;42.664;23.308;2022-08-20T10:47:17;120715.88;;;-142.62;38.62
6427;BME280;3246;42.664;23.308;2022-08-20T10:49:45;120715.88;;;-142.62;38.43
6427;BME280;3246;42.664;23.308;2022-08-20T10:52:12;120715.88;;;-142.62;38.56
6427;BME280;3246;42.664;23.308;2022-08-20T10:54:39;120715.88;;;-142.62;37.89
6427;BME280;3246;42.664;23.308;2022-08-20T10:57:07;120715.88;;;-142.62;37.78
6427;BME280;3246;42.664;23.308;2022-08-20T10:59:38;120715.88;;;-142.62;37.75
6427;BME280;3246;42.664;23.308;2022-08-20T11:02:05;120715.88;;;-142.62;37.27
6427;BME280;3246;42.664;23.308;2022-08-20T11:04:33;120715.88;;;-142.62;38.08
6427;BME280;3246;42.664;23.308;2022-08-20T11:07:12;120715.88;;;-142.62;37.87
6427;BME280;3246;42.664;23.308;2022-08-20T11:09:39;120715.88;;;-142.62;37.97
6427;BME280;3246;42.664;23.308;2022-08-20T11:12:07;120715.88;;;-142.62;37.89
6427;BME280;3246;42.664;23.308;2022-08-20T11:14:34;120715.88;;;-142.62;37.46
6427;BME280;3246;42.664;23.308;2022-08-20T11:17:01;120715.88;;;-142.62;37.33
6427;BME280;3246;42.664;23.308;2022-08-20T11:19:29;120715.88;;;-142.62;37.49
6427;BME280;3246;42.664;23.308;2022-08-20T11:21:57;120715.88;;;-142.62;37.81
6427;BME280;3246;42.664;23.308;2022-08-20T11:24:24;120715.88;;;-142.62;37.84
6427;BME280;3246;42.664;23.308;2022-08-20T11:26:51;120715.88;;;-142.62;37.73
6427;BME280;3246;42.664;23.308;2022-08-20T11:29:18;120715.88;;;-142.62;37.47
6427;BME280;3246;42.664;23.308;2022-08-20T11:31:47;120715.88;;;-142.62;37.41
6427;BME280;3246;42.664;23.308;2022-08-20T11:34:14;120715.88;;;-142.62;37.37
6427;BME280;3246;42.664;23.308;2022-08-20T11:36:41;120715.88;;;-142.62;37.35
6427;BME280;3246;42.664;23.308;2022-08-20T11:39:10;120715.88;;;-142.62;37.07
6427;BME280;3246;42.664;23.308;2022-08-20T11:41:36;120715.88;;;-142.62;36.91
6427;BME280;3246;42.664;23.308;2022-08-20T11:44:03;120715.88;;;-142.62;36.44
6427;BME280;3246;42.664;23.308;2022-08-20T11:46:30;120715.88;;;-142.62;36.69
6427;BME280;3246;42.664;23.308;2022-08-20T11:48:58;120715.88;;;-142.62;36.32
6427;BME280;3246;42.664;23.308;2022-08-20T11:51:25;120715.88;;;-142.62;36.59
6427;BME280;3246;42.664;23.308;2022-08-20T11:53:52;120715.88;;;-142.62;36.83
6427;BME280;3246;42.664;23.308;2022-08-20T11:56:20;120715.88;;;-142.62;36.89
6427;BME280;3246;42.664;23.308;2022-08-20T11:58:47;120715.88;;;-142.62;37.11
6427;BME280;3246;42.664;23.308;2022-08-20T12:01:14;120715.88;;;-142.62;37.65
6427;BME280;3246;42.664;23.308;2022-08-20T12:03:41;120715.88;;;-142.62;38.76
6427;BME280;3246;42.664;23.308;2022-08-20T12:06:08;120715.88;;;-142.62;39.68
6427;BME280;3246;42.664;23.308;2022-08-20T12:08:35;120715.88;;;-142.62;40.67
6427;BME280;3246;42.664;23.308;2022-08-20T12:11:02;120715.88;;;-142.62;44.84
6427;BME280;3246;42.664;23.308;2022-08-20T12:13:32;120715.88;;;-142.62;44.63
6427;BME280;3246;42.664;23.308;2022-08-20T12:16:00;120715.88;;;-142.62;41.69
6427;BME280;3246;42.664;23.308;2022-08-20T12:18:27;120715.88;;;-142.62;43.45
6427;BME280;3246;42.664;23.308;2022-08-20T12:20:54;120715.88;;;-142.62;42.07
6427;BME280;3246;42.664;23.308;2022-08-20T12:23:21;120715.88;;;-142.62;43.05
6427;BME280;3246;42.664;23.308;2022-08-20T12:25:48;120715.88;;;-142.62;43.69
6427;BME280;3246;42.664;23.308;2022-08-20T12:28:15;120715.88;;;-142.62;44.19
6427;BME280;3246;42.664;23.308;2022-08-20T12:30:43;120715.88;;;-142.62;43.05
6427;BME280;3246;42.664;23.308;2022-08-20T12:33:10;120715.88;;;-142.62;45.43
6427;BME280;3246;42.664;23.308;2022-08-20T12:35:38;120715.88;;;-142.62;49.41
6427;BME280;3246;42.664;23.308;2022-08-20T12:38:05;120715.88;;;-142.62;50.74
6427;BME280;3246;42.664;23.308;2022-08-20T12:40:33;120715.88;;;-142.62;53.33
6427;BME280;3246;42.664;23.308;2022-08-20T12:43:00;120715.88;;;-142.62;52.73
6427;BME280;3246;42.664;23.308;2022-08-20T12:45:27;120715.88;;;-142.62;54.17